Time;durP1;ratioP1;P1;durP2;ratioP2;P2;SDS_P1;SDS_P2;PMS_P1;PMS_P2;Temp;Humidity;BMP_temperature;BMP_pressure;BME280_temperature;BME280_humidity;BME280_pressure;Samples;Min_cycle;Max_cycle;Signal;HPM_P1;HPM_P2
2022/10/13 00:00:24;;;;;;;13.70;10.70;;;15.20;99.10;;;;;;5038579;28;20022;-67
2022/10/13 00:02:50;;;;;;;13.40;9.98;;;15.20;99.00;;;;;;5046916;28;20084;-67
2022/10/13 00:05:16;;;;;;;17.23;10.68;;;15.20;99.00;;;;;;5035447;28;20034;-68
2022/10/13 00:07:41;;;;;;;15.55;10.98;;;15.20;99.00;;;;;;5035934;28;20032;-67
2022/10/13 00:10:07;;;;;;;14.70;10.15;;;15.20;99.00;;;;;;5035483;28;20030;-67
2022/10/13 00:12:35;;;;;;;14.68;10.93;;;15.20;99.00;;;;;;5035502;28;20109;-66
2022/10/13 00:15:01;;;;;;;13.85;10.05;;;15.20;99.00;;;;;;5035587;28;20061;-67
2022/10/13 00:17:27;;;;;;;15.82;11.00;;;15.20;99.10;;;;;;5042225;28;20079;-67
2022/10/13 00:19:52;;;;;;;17.40;10.85;;;15.10;99.10;;;;;;5053655;28;20032;-67
2022/10/13 00:22:18;;;;;;;15.60;10.40;;;15.10;99.10;;;;;;5055456;28;20459;-67
2022/10/13 00:24:43;;;;;;;18.15;11.10;;;15.10;99.20;;;;;;5054135;28;20064;-67
2022/10/13 00:27:09;;;;;;;17.63;10.52;;;15.20;99.10;;;;;;5054821;28;20028;-67
2022/10/13 00:29:34;;;;;;;14.93;10.68;;;15.20;99.20;;;;;;5055391;28;20025;-66
2022/10/13 00:32:00;;;;;;;14.20;10.57;;;15.20;99.20;;;;;;5055385;28;20033;-66
2022/10/13 00:34:26;;;;;;;16.02;10.77;;;15.10;99.20;;;;;;5044032;28;20018;-67
2022/10/13 00:36:51;;;;;;;16.45;10.35;;;15.10;99.10;;;;;;5035111;28;20494;-67
2022/10/13 00:39:17;;;;;;;13.65;10.98;;;15.20;99.20;;;;;;5035101;28;20025;-67
2022/10/13 00:41:42;;;;;;;15.25;10.75;;;15.20;99.20;;;;;;5034777;28;20036;-67
2022/10/13 00:44:49;;;;;;;15.05;10.25;;;15.20;99.20;;;;;;5035115;28;20026;-67
2022/10/13 00:47:15;;;;;;;13.63;10.05;;;15.10;99.20;;;;;;5014548;28;20045;-67
2022/10/13 00:49:41;;;;;;;16.10;10.32;;;15.10;99.30;;;;;;5049153;28;20025;-67
2022/10/13 00:52:06;;;;;;;14.43;11.00;;;15.10;99.30;;;;;;5054647;28;20029;-67
2022/10/13 00:54:32;;;;;;;15.13;10.52;;;15.10;99.30;;;;;;5054669;28;20048;-67
2022/10/13 00:56:58;;;;;;;13.10;10.38;;;15.10;99.20;;;;;;5054986;28;20124;-66
2022/10/13 00:59:27;;;;;;;14.65;10.27;;;15.10;99.20;;;;;;5054775;28;20466;-67
2022/10/13 01:01:54;;;;;;;16.17;10.55;;;15.10;99.20;;;;;;5054858;28;20025;-66
2022/10/13 01:04:24;;;;;;;16.38;10.23;;;15.10;99.20;;;;;;5038225;28;20442;-67
2022/10/13 01:06:51;;;;;;;13.95;10.02;;;15.20;99.30;;;;;;5053287;28;20025;-67
2022/10/13 01:09:17;;;;;;;17.77;10.00;;;15.10;99.20;;;;;;5053922;28;20025;-67
2022/10/13 01:11:55;;;;;;;15.07;10.43;;;15.10;99.20;;;;;;5054062;28;20078;-67
2022/10/13 01:14:37;;;;;;;15.13;10.95;;;15.10;99.20;;;;;;5054496;28;20029;-67
2022/10/13 01:17:24;;;;;;;12.77;10.05;;;15.20;99.30;;;;;;5054225;28;20037;-66
2022/10/13 01:19:52;;;;;;;16.35;9.80;;;15.20;99.30;;;;;;5049499;28;20021;-67
2022/10/13 01:22:38;;;;;;;21.63;10.75;;;15.10;99.40;;;;;;5034363;28;20060;-67
2022/10/13 01:25:25;;;;;;;14.40;10.23;;;15.10;99.30;;;;;;5034174;28;20025;-67
2022/10/13 01:28:28;;;;;;;12.90;10.32;;;15.10;99.20;;;;;;5034190;28;20022;-67
2022/10/13 01:31:01;;;;;;;15.20;10.68;;;15.20;99.30;;;;;;5034214;28;20034;-68
2022/10/13 01:33:42;;;;;;;15.60;10.43;;;15.10;99.20;;;;;;5034119;28;20021;-68
2022/10/13 01:36:22;;;;;;;16.10;11.00;;;15.10;99.30;;;;;;5050882;28;20115;-69
2022/10/13 01:39:04;;;;;;;14.55;10.32;;;15.10;99.30;;;;;;5053781;28;20025;-68
2022/10/13 01:41:43;;;;;;;12.83;10.13;;;15.10;99.30;;;;;;5050921;28;20371;-68
2022/10/13 01:44:24;;;;;;;14.43;9.38;;;15.10;99.30;;;;;;5034370;28;20049;-68
2022/10/13 01:46:51;;;;;;;14.65;9.05;;;15.10;99.30;;;;;;5033901;28;20384;-68
2022/10/13 01:49:20;;;;;;;13.50;9.57;;;15.10;99.20;;;;;;5034945;28;20040;-69
2022/10/13 01:51:48;;;;;;;13.45;10.13;;;15.20;99.30;;;;;;5031547;28;20143;-68
2022/10/13 01:54:14;;;;;;;13.98;9.93;;;15.10;99.30;;;;;;5030489;28;20390;-68
2022/10/13 01:56:39;;;;;;;14.95;9.52;;;15.10;99.30;;;;;;5017996;28;20476;-68
2022/10/13 01:59:10;;;;;;;14.68;9.88;;;15.00;99.30;;;;;;5011545;28;20632;-68
2022/10/13 02:01:50;;;;;;;13.88;9.30;;;15.10;99.30;;;;;;5012791;28;20026;-68
2022/10/13 02:04:55;;;;;;;15.55;9.90;;;15.10;99.30;;;;;;5020280;28;20017;-69
2022/10/13 02:07:47;;;;;;;12.05;9.63;;;15.10;99.30;;;;;;5040063;28;20040;-68
2022/10/13 02:10:25;;;;;;;16.60;9.55;;;15.10;99.30;;;;;;5052273;28;20112;-68
2022/10/13 02:13:05;;;;;;;12.02;9.27;;;15.10;99.30;;;;;;5051997;28;20021;-68
2022/10/13 02:15:38;;;;;;;12.80;8.68;;;15.10;99.30;;;;;;5053355;28;20052;-68
2022/10/13 02:18:06;;;;;;;15.95;9.73;;;15.10;99.40;;;;;;5053330;28;20529;-68
2022/10/13 02:20:32;;;;;;;14.25;8.95;;;15.10;99.30;;;;;;5051930;28;20104;-68
2022/10/13 02:23:02;;;;;;;15.60;9.55;;;15.10;99.40;;;;;;5050011;28;20032;-68
2022/10/13 02:25:29;;;;;;;15.23;8.82;;;15.10;99.30;;;;;;5053072;28;20096;-68
2022/10/13 02:27:58;;;;;;;13.20;9.27;;;15.10;99.30;;;;;;5052994;28;20079;-68
2022/10/13 02:30:26;;;;;;;13.07;9.20;;;15.10;99.40;;;;;;5052964;28;20362;-68
2022/10/13 02:32:51;;;;;;;14.90;9.48;;;15.10;99.40;;;;;;5053003;28;20103;-68
2022/10/13 02:35:17;;;;;;;12.18;9.30;;;15.00;99.30;;;;;;5053122;28;20056;-68
2022/10/13 02:37:43;;;;;;;15.00;8.73;;;15.10;99.40;;;;;;5051145;28;20033;-68
2022/10/13 02:40:09;;;;;;;10.93;8.63;;;15.00;99.40;;;;;;5053056;28;20393;-67
2022/10/13 02:42:35;;;;;;;13.38;9.45;;;15.10;99.40;;;;;;5051584;28;20154;-67
2022/10/13 02:45:00;;;;;;;13.02;9.27;;;15.10;99.40;;;;;;5053100;28;20478;-68
2022/10/13 02:47:26;;;;;;;13.70;8.95;;;15.10;99.40;;;;;;5053014;28;20035;-68
2022/10/13 02:49:52;;;;;;;15.57;9.55;;;15.00;99.40;;;;;;5052808;28;20060;-68
2022/10/13 02:52:17;;;;;;;12.55;9.07;;;15.10;99.40;;;;;;5038858;28;20073;-68
2022/10/13 02:54:43;;;;;;;15.75;9.27;;;15.10;99.40;;;;;;5032852;28;20025;-68
2022/10/13 02:57:08;;;;;;;16.60;10.15;;;15.10;99.40;;;;;;5032735;28;20042;-68
2022/10/13 02:59:34;;;;;;;15.43;9.30;;;15.10;99.50;;;;;;5036648;28;20025;-68
2022/10/13 03:02:00;;;;;;;10.88;8.73;;;15.10;99.50;;;;;;5051460;28;20056;-67
2022/10/13 03:04:25;;;;;;;14.77;8.85;;;15.00;99.50;;;;;;5052694;28;20075;-66
2022/10/13 03:06:51;;;;;;;14.80;9.63;;;15.00;99.50;;;;;;5046480;28;20033;-67
2022/10/13 03:09:16;;;;;;;15.50;9.07;;;15.00;99.60;;;;;;5033349;28;20056;-67
2022/10/13 03:11:42;;;;;;;13.05;9.32;;;15.00;99.50;;;;;;5032780;28;20034;-67
2022/10/13 03:14:08;;;;;;;13.82;9.73;;;15.00;99.60;;;;;;5032756;28;20021;-68
2022/10/13 03:16:33;;;;;;;13.88;8.93;;;15.10;99.50;;;;;;5032482;28;20045;-67
2022/10/13 03:18:59;;;;;;;15.18;9.30;;;15.00;99.60;;;;;;5032640;28;20017;-67
2022/10/13 03:21:25;;;;;;;12.15;9.07;;;15.00;99.60;;;;;;5036230;28;20110;-67
2022/10/13 03:23:50;;;;;;;15.85;8.50;;;15.00;99.60;;;;;;5032520;28;20075;-67
2022/10/13 03:26:16;;;;;;;13.40;9.68;;;15.00;99.70;;;;;;5032541;28;20030;-68
2022/10/13 03:28:42;;;;;;;16.50;9.23;;;15.00;99.80;;;;;;5032610;28;20033;-68
2022/10/13 03:31:10;;;;;;;13.57;9.00;;;15.00;99.70;;;;;;5032625;28;20032;-69
2022/10/13 03:33:36;;;;;;;13.85;9.55;;;15.00;99.70;;;;;;5033832;28;20017;-69
2022/10/13 03:36:03;;;;;;;12.05;9.02;;;15.00;99.70;;;;;;5036871;28;20088;-68
2022/10/13 03:38:32;;;;;;;16.63;9.13;;;15.10;99.80;;;;;;5041517;28;20039;-68
2022/10/13 03:41:04;;;;;;;17.75;10.73;;;15.00;99.80;;;;;;5056427;28;20025;-66
2022/10/13 03:43:29;;;;;;;11.60;9.63;;;15.00;99.80;;;;;;5056379;28;20025;-67
2022/10/13 03:45:56;;;;;;;17.15;9.98;;;15.00;99.80;;;;;;5055989;28;20059;-67
2022/10/13 03:48:22;;;;;;;15.88;9.90;;;15.00;99.80;;;;;;5056201;28;20052;-66
2022/10/13 03:50:48;;;;;;;15.40;10.32;;;15.00;99.90;;;;;;5055648;28;20418;-67
2022/10/13 03:53:14;;;;;;;12.07;8.77;;;15.00;99.90;;;;;;5044846;28;20029;-66
2022/10/13 03:55:40;;;;;;;13.18;8.82;;;15.00;99.90;;;;;;5035948;28;20466;-67
2022/10/13 03:58:05;;;;;;;14.85;10.52;;;15.00;99.90;;;;;;5036168;28;20034;-66
2022/10/13 04:00:31;;;;;;;13.93;9.73;;;15.00;99.90;;;;;;5035960;28;20017;-67
2022/10/13 04:02:56;;;;;;;13.93;9.13;;;15.00;99.90;;;;;;5035658;28;20040;-68
2022/10/13 04:05:22;;;;;;;13.05;9.43;;;15.00;99.90;;;;;;5035500;28;20100;-67
2022/10/13 04:07:47;;;;;;;13.82;9.50;;;15.00;99.90;;;;;;5044930;28;20115;-67
2022/10/13 04:10:13;;;;;;;14.63;9.05;;;15.00;99.90;;;;;;5041836;28;20026;-68
2022/10/13 04:12:39;;;;;;;14.13;9.68;;;15.00;99.90;;;;;;5035572;28;20052;-68
2022/10/13 04:15:05;;;;;;;17.35;9.63;;;15.00;99.90;;;;;;5035555;28;20079;-68
2022/10/13 04:17:30;;;;;;;18.17;10.13;;;15.00;99.90;;;;;;5035518;28;20462;-67
2022/10/13 04:19:56;;;;;;;15.20;9.90;;;15.00;99.90;;;;;;5035249;28;20045;-66
2022/10/13 04:22:21;;;;;;;17.08;9.90;;;15.00;99.90;;;;;;5034118;28;20064;-68
2022/10/13 04:24:47;;;;;;;15.68;9.52;;;15.00;99.90;;;;;;5052949;28;20053;-67
2022/10/13 04:27:15;;;;;;;14.77;9.48;;;15.00;99.90;;;;;;5055283;28;20100;-67
2022/10/13 04:29:41;;;;;;;15.98;9.90;;;15.00;99.90;;;;;;5055179;28;20013;-67
2022/10/13 04:32:06;;;;;;;12.48;9.82;;;15.00;99.90;;;;;;5047678;28;20041;-68
2022/10/13 04:34:32;;;;;;;12.50;9.30;;;15.00;99.90;;;;;;5035307;28;20036;-68
2022/10/13 04:36:58;;;;;;;14.98;10.45;;;15.00;99.90;;;;;;5034911;28;20045;-67
2022/10/13 04:39:23;;;;;;;14.77;10.57;;;15.00;99.90;;;;;;5035221;28;20028;-67
2022/10/13 04:41:49;;;;;;;15.43;9.85;;;15.00;99.90;;;;;;5050625;28;20052;-67
2022/10/13 04:44:15;;;;;;;14.93;10.68;;;15.00;99.90;;;;;;5054691;28;20029;-67
2022/10/13 04:46:40;;;;;;;15.10;10.45;;;15.00;99.90;;;;;;5054125;28;20028;-67
2022/10/13 04:49:06;;;;;;;19.08;10.65;;;15.00;99.90;;;;;;5054924;28;20537;-67
2022/10/13 04:51:32;;;;;;;17.67;10.32;;;15.00;99.90;;;;;;5054677;28;20029;-68
2022/10/13 04:53:59;;;;;;;13.35;10.60;;;14.90;99.90;;;;;;5054774;28;20455;-67
2022/10/13 04:56:26;;;;;;;18.20;10.05;;;14.90;99.90;;;;;;5040221;28;20509;-67
2022/10/13 04:58:52;;;;;;;16.45;11.15;;;14.90;99.90;;;;;;5035305;28;20029;-69
2022/10/13 05:01:20;;;;;;;17.77;12.35;;;15.00;99.90;;;;;;5030511;28;20026;-68
2022/10/13 05:03:46;;;;;;;17.65;12.13;;;15.00;99.90;;;;;;5030059;28;20017;-69
2022/10/13 05:06:24;;;;;;;16.98;12.57;;;14.90;99.90;;;;;;5033797;28;20535;-69
2022/10/13 05:08:50;;;;;;;19.33;12.48;;;14.90;99.90;;;;;;5032203;28;20021;-69
2022/10/13 05:11:16;;;;;;;19.65;12.85;;;14.90;99.90;;;;;;5033611;28;20102;-69
2022/10/13 05:13:42;;;;;;;16.75;12.70;;;14.90;99.90;;;;;;5050809;28;20021;-68
2022/10/13 05:16:09;;;;;;;18.75;12.27;;;14.90;99.90;;;;;;5053936;28;20481;-68
2022/10/13 05:18:36;;;;;;;18.65;12.35;;;14.90;99.90;;;;;;5054412;28;20024;-68
2022/10/13 05:21:16;;;;;;;15.82;12.13;;;14.90;99.90;;;;;;5054235;28;20053;-67
2022/10/13 05:23:42;;;;;;;17.17;11.65;;;14.90;99.60;;;;;;5020612;28;21131;-67
2022/10/13 05:26:13;;;;;;;19.80;12.32;;;14.90;99.60;;;;;;5016172;28;20690;-65
2022/10/13 05:28:39;;;;;;;18.60;13.07;;;14.90;99.50;;;;;;5030727;28;20028;-67
2022/10/13 05:31:19;;;;;;;18.45;12.80;;;14.90;99.80;;;;;;5020363;28;20163;-67
2022/10/13 05:33:46;;;;;;;17.67;13.32;;;14.90;99.40;;;;;;5023394;28;20029;-67
2022/10/13 05:36:18;;;;;;;23.80;14.30;;;14.90;99.60;;;;;;5033181;28;20495;-64
2022/10/13 05:38:44;;;;;;;20.95;13.85;;;14.90;99.50;;;;;;5027334;28;20033;-64
2022/10/13 05:41:13;;;;;;;20.48;13.77;;;14.90;99.60;;;;;;5030318;28;20018;-64
2022/10/13 05:43:40;;;;;;;20.88;13.90;;;14.90;99.50;;;;;;5028391;28;20026;-64
2022/10/13 05:46:06;;;;;;;19.95;14.18;;;14.90;99.50;;;;;;5042029;28;20096;-64
2022/10/13 05:48:33;;;;;;;23.10;14.05;;;14.90;99.70;;;;;;5036242;28;20075;-64
2022/10/13 05:51:00;;;;;;;20.55;14.15;;;14.80;99.70;;;;;;5020723;28;20580;-65
2022/10/13 05:53:31;;;;;;;22.48;14.45;;;14.80;99.90;;;;;;5022923;28;20582;-63
2022/10/13 05:56:05;;;;;;;21.42;15.07;;;14.80;99.80;;;;;;5033460;28;20032;-62
2022/10/13 05:58:38;;;;;;;17.52;10.70;;;14.80;99.60;;;;;;5029432;28;20100;-64
2022/10/13 06:01:10;;;;;;;24.55;14.88;;;14.90;99.00;;;;;;5029351;28;20026;-64
2022/10/13 06:03:37;;;;;;;20.88;15.23;;;14.90;99.20;;;;;;5032877;28;20029;-64
2022/10/13 06:06:03;;;;;;;20.98;13.60;;;14.90;99.60;;;;;;5036563;28;20045;-63
2022/10/13 06:08:29;;;;;;;21.45;12.43;;;14.80;99.70;;;;;;5020099;28;20032;-65
2022/10/13 06:10:55;;;;;;;19.20;13.55;;;14.90;99.10;;;;;;5024919;28;20033;-65
2022/10/13 06:13:20;;;;;;;14.68;11.15;;;14.90;98.90;;;;;;5038284;28;20024;-64
2022/10/13 06:15:46;;;;;;;22.85;12.90;;;14.90;98.50;;;;;;5042196;28;20065;-64
2022/10/13 06:18:11;;;;;;;18.80;12.85;;;15.00;98.50;;;;;;5023125;28;20125;-67
2022/10/13 06:20:37;;;;;;;18.90;13.50;;;15.00;98.90;;;;;;5011115;28;20065;-68
2022/10/13 06:23:04;;;;;;;20.50;13.52;;;15.00;99.40;;;;;;5035037;28;20041;-69
2022/10/13 06:25:30;;;;;;;18.67;12.15;;;14.90;99.50;;;;;;5033121;28;20036;-68
2022/10/13 06:27:56;;;;;;;19.83;12.48;;;15.00;99.50;;;;;;5031551;28;20021;-68
2022/10/13 06:30:22;;;;;;;22.27;13.15;;;15.10;99.70;;;;;;5039589;28;20390;-68
2022/10/13 06:32:47;;;;;;;15.75;11.18;;;15.10;99.70;;;;;;5030011;28;20028;-68
2022/10/13 06:35:13;;;;;;;17.33;11.50;;;15.10;99.60;;;;;;5031891;28;20038;-68
2022/10/13 06:37:39;;;;;;;19.10;12.45;;;15.10;99.70;;;;;;5036877;28;20044;-68
2022/10/13 06:40:05;;;;;;;16.77;12.18;;;15.10;99.70;;;;;;5038150;28;20021;-68
2022/10/13 06:42:32;;;;;;;16.35;13.00;;;15.10;99.60;;;;;;5012848;28;20022;-68
2022/10/13 06:44:58;;;;;;;21.67;12.88;;;15.10;99.70;;;;;;5016552;28;20029;-68
2022/10/13 06:47:24;;;;;;;22.95;14.23;;;15.10;99.60;;;;;;5037411;28;20112;-68
2022/10/13 06:49:49;;;;;;;21.25;12.85;;;15.10;99.60;;;;;;5052704;28;20021;-68
2022/10/13 06:52:15;;;;;;;19.50;12.15;;;15.10;99.60;;;;;;5050299;28;20028;-68
2022/10/13 06:54:41;;;;;;;18.67;12.88;;;15.10;99.60;;;;;;5037923;28;20033;-68
2022/10/13 06:57:06;;;;;;;20.67;13.38;;;15.10;99.60;;;;;;5029643;28;20083;-68
2022/10/13 06:59:32;;;;;;;21.63;12.90;;;15.10;99.60;;;;;;5032355;28;20017;-68
2022/10/13 07:01:58;;;;;;;21.38;12.55;;;15.10;99.60;;;;;;5036376;28;20112;-68
2022/10/13 07:04:24;;;;;;;24.50;15.05;;;15.10;99.60;;;;;;5031694;28;20022;-68
2022/10/13 07:06:51;;;;;;;18.88;13.73;;;15.10;99.90;;;;;;5032537;28;20034;-68
2022/10/13 07:09:17;;;;;;;22.02;13.98;;;15.10;99.60;;;;;;5031604;28;20371;-67
2022/10/13 07:11:44;;;;;;;18.88;14.27;;;15.00;99.70;;;;;;5041647;28;20025;-69
2022/10/13 07:14:10;;;;;;;20.77;14.80;;;15.10;99.70;;;;;;5046085;28;20028;-68
2022/10/13 07:16:36;;;;;;;24.70;15.85;;;15.00;99.80;;;;;;5036215;28;20033;-68
2022/10/13 07:19:01;;;;;;;19.00;14.93;;;15.00;99.90;;;;;;5034917;28;20101;-68
2022/10/13 07:21:27;;;;;;;22.38;13.90;;;15.00;99.90;;;;;;5038658;28;20048;-67
2022/10/13 07:23:53;;;;;;;18.95;13.13;;;15.00;99.90;;;;;;5033913;28;20037;-67
2022/10/13 07:26:19;;;;;;;24.67;14.60;;;15.10;99.90;;;;;;5039789;28;20509;-67
2022/10/13 07:28:44;;;;;;;21.92;14.38;;;15.10;99.90;;;;;;5035734;28;20017;-69
2022/10/13 07:31:12;;;;;;;21.73;14.10;;;15.00;99.90;;;;;;5045554;28;20025;-69
2022/10/13 07:33:39;;;;;;;20.27;15.18;;;15.00;99.90;;;;;;5051427;28;20032;-68
2022/10/13 07:36:06;;;;;;;21.30;14.77;;;15.00;99.90;;;;;;5035809;28;20041;-67
2022/10/13 07:38:31;;;;;;;21.45;15.05;;;15.00;99.90;;;;;;5033953;28;20479;-67
2022/10/13 07:41:01;;;;;;;21.05;14.68;;;15.00;99.90;;;;;;5035715;28;20028;-68
2022/10/13 07:43:27;;;;;;;17.95;12.57;;;15.00;99.90;;;;;;5042164;28;20035;-67
2022/10/13 07:45:53;;;;;;;21.33;14.77;;;15.00;99.90;;;;;;5033891;28;20371;-67
2022/10/13 07:48:18;;;;;;;21.90;14.95;;;15.00;99.90;;;;;;5055111;28;20040;-68
2022/10/13 07:50:44;;;;;;;21.67;14.07;;;15.00;99.90;;;;;;5034256;28;20017;-67
2022/10/13 07:53:10;;;;;;;23.23;14.70;;;15.00;99.90;;;;;;5031239;28;20030;-68
2022/10/13 07:55:36;;;;;;;17.90;11.95;;;15.00;99.90;;;;;;5024602;28;20029;-67
2022/10/13 07:58:02;;;;;;;21.60;13.95;;;15.10;99.90;;;;;;5030467;28;20041;-67
2022/10/13 08:00:28;;;;;;;29.63;14.90;;;15.10;99.90;;;;;;5033543;28;20059;-67
2022/10/13 08:02:53;;;;;;;17.30;12.48;;;15.00;99.90;;;;;;5053473;28;20072;-68
2022/10/13 08:05:19;;;;;;;17.98;13.00;;;15.10;99.90;;;;;;5041804;28;20212;-67
2022/10/13 08:07:45;;;;;;;17.80;13.27;;;15.10;99.90;;;;;;5040538;28;20033;-67
2022/10/13 08:10:11;;;;;;;16.60;12.00;;;15.10;99.90;;;;;;5046020;28;20029;-68
2022/10/13 08:12:37;;;;;;;18.38;13.45;;;15.10;99.80;;;;;;5034219;28;20501;-68
2022/10/13 08:15:04;;;;;;;20.30;14.68;;;15.10;99.90;;;;;;5046549;28;20037;-67
2022/10/13 08:17:29;;;;;;;22.00;14.98;;;15.10;99.90;;;;;;5031989;28;20029;-67
2022/10/13 08:19:55;;;;;;;18.05;13.27;;;15.10;99.90;;;;;;5049306;28;20036;-67
2022/10/13 08:22:21;;;;;;;18.88;13.32;;;15.10;99.90;;;;;;5038815;28;20029;-68
2022/10/13 08:24:46;;;;;;;18.10;13.43;;;15.10;99.90;;;;;;5054037;28;20017;-67
2022/10/13 08:27:19;;;;;;;18.33;12.60;;;15.10;99.90;;;;;;5038097;28;20036;-67
2022/10/13 08:29:45;;;;;;;;;;;15.20;99.90;;;;;;5031631;28;20466;-67
2022/10/13 08:32:13;;;;;;;13.23;10.38;;;15.10;99.70;;;;;;5033382;28;20015;-67
2022/10/13 08:34:38;;;;;;;25.75;14.05;;;15.20;99.80;;;;;;5035168;28;20187;-68
2022/10/13 08:37:04;;;;;;;15.90;13.40;;;15.20;99.80;;;;;;5026897;28;20529;-68
2022/10/13 08:39:30;;;;;;;16.65;13.00;;;15.20;99.90;;;;;;5047678;28;20021;-69
2022/10/13 08:41:59;;;;;;;18.05;12.85;;;15.10;99.90;;;;;;5037533;28;20037;-68
2022/10/13 08:44:34;;;;;;;15.13;11.05;;;15.20;99.90;;;;;;5037265;28;20091;-69
2022/10/13 08:47:26;;;;;;;17.55;11.75;;;15.20;99.80;;;;;;5036530;28;20052;-69
2022/10/13 08:50:01;;;;;;;19.63;11.30;;;15.20;99.80;;;;;;5034863;28;20395;-68
2022/10/13 08:52:41;;;;;;;14.65;9.00;;;15.30;99.80;;;;;;5039366;28;20497;-68
2022/10/13 08:55:22;;;;;;;12.80;8.75;;;15.30;99.60;;;;;;5038297;28;20095;-68
2022/10/13 08:57:48;;;;;;;11.68;8.40;;;15.30;99.50;;;;;;5037528;28;20037;-68
2022/10/13 09:00:13;;;;;;;13.30;9.18;;;15.40;99.40;;;;;;5053373;28;20485;-68
2022/10/13 09:02:42;;;;;;;13.40;9.73;;;15.30;99.40;;;;;;5046336;28;20033;-68
2022/10/13 09:05:17;;;;;;;11.15;8.77;;;15.40;99.40;;;;;;5033587;28;20030;-68
2022/10/13 09:07:45;;;;;;;14.63;9.32;;;15.40;99.40;;;;;;5031952;28;20029;-68
2022/10/13 09:10:11;;;;;;;20.17;8.50;;;15.40;99.30;;;;;;5036569;28;20029;-68
2022/10/13 09:12:36;;;;;;;16.30;9.60;;;15.40;99.30;;;;;;5034324;28;20083;-69
2022/10/13 09:15:08;;;;;;;13.43;9.05;;;15.40;99.40;;;;;;5041685;28;20025;-68
2022/10/13 09:17:34;;;;;;;15.02;8.57;;;15.40;99.30;;;;;;5054475;28;20036;-69
2022/10/13 09:20:23;;;;;;;13.52;9.68;;;15.40;99.30;;;;;;5054330;28;20096;-68
2022/10/13 09:23:06;;;;;;;14.48;7.80;;;15.40;99.30;;;;;;5014035;28;20038;-68
2022/10/13 09:25:40;;;;;;;12.88;8.50;;;15.50;99.20;;;;;;5014408;28;20109;-69
2022/10/13 09:28:24;;;;;;;13.73;8.05;;;15.40;99.40;;;;;;5014468;28;20563;-69
2022/10/13 09:31:12;;;;;;;15.75;7.45;;;15.50;99.10;;;;;;5041539;28;20029;-70
2022/10/13 09:33:38;;;;;;;13.63;7.63;;;15.50;99.10;;;;;;5033943;28;20025;-68
2022/10/13 09:36:05;;;;;;;14.48;7.70;;;15.50;99.10;;;;;;5034211;28;20087;-69
2022/10/13 09:38:31;;;;;;;11.88;8.52;;;15.50;99.00;;;;;;5033413;28;20031;-68
2022/10/13 09:41:02;;;;;;;12.52;7.38;;;15.50;99.10;;;;;;5033546;28;20018;-68
2022/10/13 09:43:46;;;;;;;19.67;10.75;;;15.50;99.10;;;;;;5033057;28;20036;-68
2022/10/13 09:46:17;;;;;;;13.25;10.73;;;15.50;99.20;;;;;;5034312;28;20517;-68
2022/10/13 09:48:48;;;;;;;13.77;7.57;;;15.60;99.20;;;;;;5033605;28;20033;-68
2022/10/13 09:51:37;;;;;;;15.30;8.48;;;15.60;99.20;;;;;;5033813;28;20083;-68
2022/10/13 09:54:05;;;;;;;14.55;8.55;;;15.60;99.30;;;;;;5033539;28;20394;-69
2022/10/13 09:56:36;;;;;;;11.50;8.02;;;15.60;99.40;;;;;;5033296;28;20079;-68
2022/10/13 09:59:20;;;;;;;10.02;7.45;;;15.60;99.30;;;;;;5043840;28;20032;-69
2022/10/13 10:01:48;;;;;;;13.35;7.18;;;15.60;99.40;;;;;;5037024;28;20030;-69
2022/10/13 10:04:24;;;;;;;15.65;9.30;;;15.60;99.40;;;;;;5033318;28;20021;-69
2022/10/13 10:06:50;;;;;;;13.50;9.00;;;15.70;99.50;;;;;;5033213;28;20379;-66
2022/10/13 10:09:37;;;;;;;13.48;8.93;;;15.60;99.40;;;;;;5053108;28;20032;-66
2022/10/13 10:12:04;;;;;;;12.60;6.97;;;15.60;99.60;;;;;;5042399;28;20039;-66
2022/10/13 10:14:33;;;;;;;11.55;7.90;;;15.70;99.50;;;;;;5033053;28;20104;-66
2022/10/13 10:17:15;;;;;;;15.20;8.68;;;15.70;99.60;;;;;;5041077;28;20041;-65
2022/10/13 10:19:49;;;;;;;10.00;7.07;;;15.70;99.60;;;;;;5033192;28;20053;-65
2022/10/13 10:22:51;;;;;;;14.55;7.30;;;15.70;99.50;;;;;;5032616;28;20033;-65
2022/10/13 10:25:36;;;;;;;16.95;9.85;;;15.70;99.60;;;;;;5030685;28;20034;-65
2022/10/13 10:28:10;;;;;;;11.05;7.53;;;15.70;99.70;;;;;;5022690;28;20025;-65
2022/10/13 10:30:42;;;;;;;12.63;6.53;;;15.70;99.60;;;;;;5040045;28;20120;-64
2022/10/13 10:33:12;;;;;;;16.98;7.10;;;15.80;99.60;;;;;;5048936;28;20028;-65
2022/10/13 10:36:03;;;;;;;12.90;8.45;;;15.80;99.60;;;;;;5032162;28;20585;-64
2022/10/13 10:39:00;;;;;;;12.40;6.82;;;15.80;99.60;;;;;;5041775;28;20029;-64
2022/10/13 10:41:41;;;;;;;14.32;7.38;;;15.80;99.60;;;;;;5032265;28;20041;-64
2022/10/13 10:44:14;;;;;;;10.73;6.80;;;15.80;99.70;;;;;;5029511;28;20033;-68
2022/10/13 10:46:49;;;;;;;14.10;7.00;;;15.90;99.60;;;;;;5016633;28;20065;-65
2022/10/13 10:49:22;;;;;;;16.05;7.57;;;15.90;99.70;;;;;;5036588;28;20017;-65
2022/10/13 10:51:48;;;;;;;9.43;6.82;;;15.90;99.70;;;;;;5032680;28;20049;-65
2022/10/13 10:54:47;;;;;;;12.38;6.93;;;15.90;99.60;;;;;;5032464;28;20017;-65
2022/10/13 10:57:20;;;;;;;12.20;6.70;;;15.90;99.60;;;;;;5012962;28;20489;-65
2022/10/13 11:00:04;;;;;;;11.52;7.50;;;15.90;99.60;;;;;;5012844;28;20105;-65
2022/10/13 11:03:03;;;;;;;13.57;8.00;;;16.00;99.60;;;;;;5028440;28;20021;-65
2022/10/13 11:06:15;;;;;;;13.05;7.53;;;16.00;99.60;;;;;;5035187;28;20030;-65
2022/10/13 11:08:45;;;;;;;13.98;7.22;;;16.00;99.50;;;;;;5022516;28;20061;-65
2022/10/13 11:11:22;;;;;;;15.55;7.15;;;16.00;99.70;;;;;;5035150;28;20025;-64
2022/10/13 11:13:56;;;;;;;17.70;8.30;;;16.00;99.70;;;;;;5042763;28;20429;-65
2022/10/13 11:16:40;;;;;;;13.15;6.63;;;16.00;99.80;;;;;;5032201;28;20029;-64
2022/10/13 11:19:27;;;;;;;10.05;7.70;;;16.00;99.80;;;;;;5029576;28;20079;-63
2022/10/13 11:21:52;;;;;;;13.73;7.18;;;16.00;99.80;;;;;;5032650;28;20056;-65
2022/10/13 11:24:33;;;;;;;14.43;6.97;;;16.00;99.90;;;;;;5042920;28;20034;-66
2022/10/13 11:27:11;;;;;;;15.13;7.40;;;16.10;99.80;;;;;;5049685;28;20392;-67
2022/10/13 11:29:42;;;;;;;17.50;8.50;;;16.10;99.80;;;;;;5043853;28;20033;-64
2022/10/13 11:35:06;;;;;;;21.30;7.95;;;16.10;99.90;;;;;;5043405;28;20037;-65
2022/10/13 11:37:57;;;;;;;13.82;7.28;;;16.10;99.90;;;;;;5046517;28;20037;-63
2022/10/13 11:40:45;;;;;;;8.95;6.63;;;16.10;99.90;;;;;;5042810;28;20017;-65
2022/10/13 11:43:33;;;;;;;12.75;7.00;;;16.10;99.90;;;;;;5031171;28;20500;-65
2022/10/13 11:46:04;;;;;;;10.15;6.72;;;16.10;99.90;;;;;;5032249;28;20037;-65
2022/10/13 11:49:14;;;;;;;13.40;8.07;;;16.10;99.80;;;;;;5033318;28;20104;-65
2022/10/13 11:51:46;;;;;;;12.82;8.38;;;16.10;99.70;;;;;;5015915;28;20498;-65
2022/10/13 11:54:26;;;;;;;9.77;6.55;;;16.10;99.80;;;;;;5033146;28;20025;-65
2022/10/13 11:56:54;;;;;;;15.30;7.47;;;16.20;99.80;;;;;;5036096;28;20379;-65
2022/10/13 11:59:25;;;;;;;10.93;6.60;;;16.20;99.80;;;;;;5035962;28;20021;-64
2022/10/13 12:01:56;;;;;;;6.93;5.30;;;16.20;99.80;;;;;;5041285;28;20025;-64
2022/10/13 12:04:25;;;;;;;9.10;6.22;;;16.20;99.80;;;;;;5054969;28;20378;-65
2022/10/13 12:06:58;;;;;;;9.30;5.93;;;16.20;99.80;;;;;;5055502;28;20502;-65
2022/10/13 12:09:24;;;;;;;10.10;6.13;;;16.20;99.70;;;;;;5049011;28;20425;-65
2022/10/13 12:12:03;;;;;;;10.15;5.80;;;16.20;99.70;;;;;;5055364;28;20028;-65
2022/10/13 12:14:37;;;;;;;11.40;7.53;;;16.20;99.70;;;;;;5055642;28;20037;-65
2022/10/13 12:17:22;;;;;;;15.68;6.72;;;16.30;99.80;;;;;;5045538;28;20039;-64
2022/10/13 12:19:47;;;;;;;11.80;6.47;;;16.30;99.80;;;;;;5019870;28;20029;-65
2022/10/13 12:22:13;;;;;;;9.07;6.05;;;16.30;99.90;;;;;;5035892;28;20112;-65
2022/10/13 12:24:39;;;;;;;9.63;6.68;;;16.30;99.80;;;;;;5055358;28;20025;-65
2022/10/13 12:27:20;;;;;;;9.90;6.13;;;16.30;99.90;;;;;;5055098;28;20083;-65
2022/10/13 12:29:46;;;;;;;8.02;6.38;;;16.30;99.90;;;;;;5055291;28;20049;-65
2022/10/13 12:32:27;;;;;;;11.15;7.28;;;16.30;99.90;;;;;;5048825;28;20045;-65
2022/10/13 12:34:53;;;;;;;11.50;8.38;;;16.30;99.90;;;;;;5035493;28;20041;-65
2022/10/13 12:37:29;;;;;;;11.30;7.03;;;16.30;99.90;;;;;;5034963;28;20041;-65
2022/10/13 12:39:57;;;;;;;10.40;7.13;;;16.40;99.90;;;;;;5035272;28;20028;-65
2022/10/13 12:42:31;;;;;;;11.15;8.02;;;16.30;99.90;;;;;;5033929;28;20040;-65
2022/10/13 12:44:59;;;;;;;10.38;7.32;;;16.40;99.90;;;;;;5029914;28;20017;-64
2022/10/13 12:47:42;;;;;;;10.82;6.53;;;16.40;99.90;;;;;;5043658;28;20037;-65
2022/10/13 12:50:26;;;;;;;10.95;8.25;;;16.40;99.90;;;;;;5033930;28;20112;-65
2022/10/13 12:53:07;;;;;;;12.43;8.43;;;16.40;99.90;;;;;;5035034;28;20029;-65